sensor_id;sensor_type;location;lat;lon;timestamp;pressure;altitude;pressure_sealevel;temperature;humidity
23303;BME280;11820;48.738;9.092;2022-07-23T00:00:47;96320.09;;;25.36;nan
23303;BME280;11820;48.738;9.092;2022-07-23T00:03:12;96321.44;;;25.34;nan
23303;BME280;11820;48.738;9.092;2022-07-23T00:05:39;96325.41;;;25.36;nan
23303;BME280;11820;48.738;9.092;2022-07-23T00:08:05;96322.72;;;25.18;nan
23303;BME280;11820;48.738;9.092;2022-07-23T00:10:31;96308.59;;;25.46;nan
23303;BME280;11820;48.738;9.092;2022-07-23T00:12:56;96313.72;;;25.19;nan
23303;BME280;11820;48.738;9.092;2022-07-23T00:15:21;96322.38;;;25.01;nan
23303;BME280;11820;48.738;9.092;2022-07-23T00:17:47;96319.22;;;25.22;nan
23303;BME280;11820;48.738;9.092;2022-07-23T00:20:12;96318.06;;;25.05;nan
23303;BME280;11820;48.738;9.092;2022-07-23T00:22:48;96316.22;;;25.05;nan
23303;BME280;11820;48.738;9.092;2022-07-23T00:25:14;96304.34;;;25.03;nan
23303;BME280;11820;48.738;9.092;2022-07-23T00:27:39;96314.94;;;25.03;nan
23303;BME280;11820;48.738;9.092;2022-07-23T00:30:06;96303.84;;;25.01;nan
23303;BME280;11820;48.738;9.092;2022-07-23T00:32:31;96306.53;;;24.96;nan
23303;BME280;11820;48.738;9.092;2022-07-23T00:34:56;96300.94;;;24.97;nan
23303;BME280;11820;48.738;9.092;2022-07-23T00:37:22;96307.81;;;24.75;nan
23303;BME280;11820;48.738;9.092;2022-07-23T00:39:47;96307.16;;;24.88;nan
23303;BME280;11820;48.738;9.092;2022-07-23T00:42:12;96300.78;;;24.66;nan
23303;BME280;11820;48.738;9.092;2022-07-23T00:44:38;96267.06;;;24.53;nan
23303;BME280;11820;48.738;9.092;2022-07-23T00:47:03;96259.66;;;24.55;nan
23303;BME280;11820;48.738;9.092;2022-07-23T00:49:30;96257.78;;;24.55;nan
23303;BME280;11820;48.738;9.092;2022-07-23T00:51:57;96262.56;;;24.53;nan
23303;BME280;11820;48.738;9.092;2022-07-23T00:54:25;96275.34;;;24.41;nan
23303;BME280;11820;48.738;9.092;2022-07-23T00:56:51;96274.84;;;24.39;nan
23303;BME280;11820;48.738;9.092;2022-07-23T00:59:16;96284.34;;;24.40;nan
23303;BME280;11820;48.738;9.092;2022-07-23T01:01:42;96273.28;;;24.33;nan
23303;BME280;11820;48.738;9.092;2022-07-23T01:04:09;96273.47;;;24.18;nan
23303;BME280;11820;48.738;9.092;2022-07-23T01:06:36;96271.94;;;24.07;nan
23303;BME280;11820;48.738;9.092;2022-07-23T01:09:04;96286.28;;;24.01;nan
23303;BME280;11820;48.738;9.092;2022-07-23T01:11:29;96280.69;;;24.08;nan
23303;BME280;11820;48.738;9.092;2022-07-23T01:13:55;96236.34;;;24.28;nan
23303;BME280;11820;48.738;9.092;2022-07-23T01:16:20;96254.50;;;24.06;nan
23303;BME280;11820;48.738;9.092;2022-07-23T01:18:46;96236.00;;;24.06;nan
23303;BME280;11820;48.738;9.092;2022-07-23T01:21:12;96245.50;;;24.12;nan
23303;BME280;11820;48.738;9.092;2022-07-23T01:23:40;96250.44;;;24.19;nan
23303;BME280;11820;48.738;9.092;2022-07-23T01:26:06;96247.47;;;24.25;nan
23303;BME280;11820;48.738;9.092;2022-07-23T01:28:31;96244.44;;;24.08;nan
23303;BME280;11820;48.738;9.092;2022-07-23T01:30:58;96223.00;;;24.15;nan
23303;BME280;11820;48.738;9.092;2022-07-23T01:33:23;96200.78;;;24.16;nan
23303;BME280;11820;48.738;9.092;2022-07-23T01:35:48;96185.16;;;24.19;nan
23303;BME280;11820;48.738;9.092;2022-07-23T01:38:14;96211.06;;;24.17;nan
23303;BME280;11820;48.738;9.092;2022-07-23T01:40:39;96230.09;;;24.19;nan
23303;BME280;11820;48.738;9.092;2022-07-23T01:43:04;96200.56;;;24.12;nan
23303;BME280;11820;48.738;9.092;2022-07-23T01:45:30;96209.13;;;23.99;nan
23303;BME280;11820;48.738;9.092;2022-07-23T01:47:55;96194.59;;;24.25;nan
23303;BME280;11820;48.738;9.092;2022-07-23T01:50:21;96202.97;;;24.09;nan
23303;BME280;11820;48.738;9.092;2022-07-23T01:52:46;96226.50;;;24.05;nan
23303;BME280;11820;48.738;9.092;2022-07-23T01:55:11;96229.81;;;23.92;nan
23303;BME280;11820;48.738;9.092;2022-07-23T01:57:37;96248.19;;;23.69;nan
23303;BME280;11820;48.738;9.092;2022-07-23T02:00:03;96243.47;;;23.66;nan
23303;BME280;11820;48.738;9.092;2022-07-23T02:02:28;96232.75;;;23.86;nan
23303;BME280;11820;48.738;9.092;2022-07-23T02:04:54;96232.06;;;23.70;nan
23303;BME280;11820;48.738;9.092;2022-07-23T02:07:19;96230.38;;;23.89;nan
23303;BME280;11820;48.738;9.092;2022-07-23T02:09:45;96227.22;;;23.87;nan
23303;BME280;11820;48.738;9.092;2022-07-23T02:12:10;96236.00;;;24.06;nan
23303;BME280;11820;48.738;9.092;2022-07-23T02:14:35;96244.19;;;24.10;nan
23303;BME280;11820;48.738;9.092;2022-07-23T02:17:01;96256.44;;;23.96;nan
23303;BME280;11820;48.738;9.092;2022-07-23T02:19:26;96259.75;;;23.78;nan
23303;BME280;11820;48.738;9.092;2022-07-23T02:21:52;96255.84;;;23.70;nan
23303;BME280;11820;48.738;9.092;2022-07-23T02:24:17;96272.22;;;23.72;nan
23303;BME280;11820;48.738;9.092;2022-07-23T02:26:43;96280.69;;;23.69;nan
23303;BME280;11820;48.738;9.092;2022-07-23T02:29:08;96286.59;;;23.95;nan
23303;BME280;11820;48.738;9.092;2022-07-23T02:31:34;96297.81;;;24.15;nan
23303;BME280;11820;48.738;9.092;2022-07-23T02:34:00;96304.13;;;24.19;nan
23303;BME280;11820;48.738;9.092;2022-07-23T02:36:25;96308.94;;;24.12;nan
23303;BME280;11820;48.738;9.092;2022-07-23T02:38:51;96315.25;;;24.16;nan
23303;BME280;11820;48.738;9.092;2022-07-23T02:41:16;96324.91;;;23.97;nan
23303;BME280;11820;48.738;9.092;2022-07-23T02:43:42;96333.41;;;23.89;nan
23303;BME280;11820;48.738;9.092;2022-07-23T02:46:07;96327.69;;;23.72;nan
23303;BME280;11820;48.738;9.092;2022-07-23T02:48:33;96342.00;;;23.66;nan
23303;BME280;11820;48.738;9.092;2022-07-23T02:50:58;96336.84;;;23.41;nan
23303;BME280;11820;48.738;9.092;2022-07-23T02:53:24;96330.63;;;23.17;nan
23303;BME280;11820;48.738;9.092;2022-07-23T02:55:49;96330.22;;;23.49;nan
23303;BME280;11820;48.738;9.092;2022-07-23T02:58:14;96329.81;;;23.70;nan
23303;BME280;11820;48.738;9.092;2022-07-23T03:00:41;96331.41;;;23.66;nan
23303;BME280;11820;48.738;9.092;2022-07-23T03:03:06;96330.44;;;23.52;nan
23303;BME280;11820;48.738;9.092;2022-07-23T03:05:33;96345.66;;;23.70;nan
23303;BME280;11820;48.738;9.092;2022-07-23T03:07:58;96339.28;;;23.81;nan
23303;BME280;11820;48.738;9.092;2022-07-23T03:10:24;96344.03;;;23.74;nan
23303;BME280;11820;48.738;9.092;2022-07-23T03:12:49;96353.59;;;23.70;nan
23303;BME280;11820;48.738;9.092;2022-07-23T03:15:14;96361.50;;;23.70;nan
23303;BME280;11820;48.738;9.092;2022-07-23T03:17:40;96353.50;;;23.90;nan
23303;BME280;11820;48.738;9.092;2022-07-23T03:20:06;96348.22;;;23.90;nan
23303;BME280;11820;48.738;9.092;2022-07-23T03:22:31;96342.06;;;24.00;nan
23303;BME280;11820;48.738;9.092;2022-07-23T03:24:57;96334.09;;;24.05;nan
23303;BME280;11820;48.738;9.092;2022-07-23T03:27:24;96324.59;;;23.99;nan
23303;BME280;11820;48.738;9.092;2022-07-23T03:29:51;96318.25;;;24.05;nan
23303;BME280;11820;48.738;9.092;2022-07-23T03:32:17;96313.94;;;24.14;nan
23303;BME280;11820;48.738;9.092;2022-07-23T03:34:42;96318.97;;;24.15;nan
23303;BME280;11820;48.738;9.092;2022-07-23T03:37:07;96329.03;;;24.08;nan
23303;BME280;11820;48.738;9.092;2022-07-23T03:39:33;96329.13;;;23.98;nan
23303;BME280;11820;48.738;9.092;2022-07-23T03:41:58;96326.94;;;24.05;nan
23303;BME280;11820;48.738;9.092;2022-07-23T03:44:24;96323.53;;;24.05;nan
23303;BME280;11820;48.738;9.092;2022-07-23T03:46:49;96322.78;;;23.99;nan
23303;BME280;11820;48.738;9.092;2022-07-23T03:49:14;96323.72;;;24.13;nan
23303;BME280;11820;48.738;9.092;2022-07-23T03:51:40;96314.19;;;24.17;nan
23303;BME280;11820;48.738;9.092;2022-07-23T03:54:05;96327.16;;;24.14;nan
23303;BME280;11820;48.738;9.092;2022-07-23T03:56:30;96325.81;;;24.16;nan
23303;BME280;11820;48.738;9.092;2022-07-23T03:58:56;96328.47;;;24.11;nan
23303;BME280;11820;48.738;9.092;2022-07-23T04:01:21;96332.03;;;23.97;nan
23303;BME280;11820;48.738;9.092;2022-07-23T04:03:46;96339.72;;;23.93;nan
23303;BME280;11820;48.738;9.092;2022-07-23T04:06:13;96343.88;;;24.04;nan
23303;BME280;11820;48.738;9.092;2022-07-23T04:08:38;96343.09;;;24.04;nan
23303;BME280;11820;48.738;9.092;2022-07-23T04:11:04;96337.66;;;23.90;nan
23303;BME280;11820;48.738;9.092;2022-07-23T04:13:29;96347.72;;;23.83;nan
23303;BME280;11820;48.738;9.092;2022-07-23T04:15:54;96342.75;;;23.67;nan
23303;BME280;11820;48.738;9.092;2022-07-23T04:18:20;96345.75;;;23.50;nan
23303;BME280;11820;48.738;9.092;2022-07-23T04:20:48;96348.25;;;23.75;nan
23303;BME280;11820;48.738;9.092;2022-07-23T04:23:14;96358.13;;;23.60;nan
23303;BME280;11820;48.738;9.092;2022-07-23T04:25:39;96354.88;;;23.78;nan
23303;BME280;11820;48.738;9.092;2022-07-23T04:28:04;96352.47;;;23.76;nan
23303;BME280;11820;48.738;9.092;2022-07-23T04:30:30;96355.63;;;23.83;nan
23303;BME280;11820;48.738;9.092;2022-07-23T04:32:55;96360.69;;;23.75;nan
23303;BME280;11820;48.738;9.092;2022-07-23T04:35:21;96361.28;;;23.62;nan
23303;BME280;11820;48.738;9.092;2022-07-23T04:37:46;96347.84;;;23.53;nan
23303;BME280;11820;48.738;9.092;2022-07-23T04:40:12;96353.94;;;23.54;nan
23303;BME280;11820;48.738;9.092;2022-07-23T04:42:38;96356.25;;;23.60;nan
23303;BME280;11820;48.738;9.092;2022-07-23T04:45:04;96351.53;;;23.62;nan
23303;BME280;11820;48.738;9.092;2022-07-23T04:47:30;96342.97;;;23.75;nan
23303;BME280;11820;48.738;9.092;2022-07-23T04:49:56;96348.00;;;23.82;nan
23303;BME280;11820;48.738;9.092;2022-07-23T04:52:22;96348.22;;;23.90;nan
23303;BME280;11820;48.738;9.092;2022-07-23T04:54:47;96337.03;;;23.98;nan
23303;BME280;11820;48.738;9.092;2022-07-23T04:57:13;96339.78;;;23.88;nan
23303;BME280;11820;48.738;9.092;2022-07-23T04:59:38;96342.13;;;23.90;nan
23303;BME280;11820;48.738;9.092;2022-07-23T05:02:04;96350.50;;;24.02;nan
23303;BME280;11820;48.738;9.092;2022-07-23T05:04:29;96349.28;;;23.89;nan
23303;BME280;11820;48.738;9.092;2022-07-23T05:06:56;96333.94;;;23.91;nan
23303;BME280;11820;48.738;9.092;2022-07-23T05:09:21;96330.44;;;23.96;nan
23303;BME280;11820;48.738;9.092;2022-07-23T05:11:47;96341.31;;;23.94;nan
23303;BME280;11820;48.738;9.092;2022-07-23T05:14:12;96353.72;;;23.94;nan
23303;BME280;11820;48.738;9.092;2022-07-23T05:16:38;96358.69;;;24.00;nan
23303;BME280;11820;48.738;9.092;2022-07-23T05:19:03;96346.47;;;24.09;nan
23303;BME280;11820;48.738;9.092;2022-07-23T05:21:29;96356.44;;;24.22;nan
23303;BME280;11820;48.738;9.092;2022-07-23T05:23:55;96356.19;;;24.19;nan
23303;BME280;11820;48.738;9.092;2022-07-23T05:26:21;96358.75;;;24.29;nan
23303;BME280;11820;48.738;9.092;2022-07-23T05:28:46;96349.81;;;24.25;nan
23303;BME280;11820;48.738;9.092;2022-07-23T05:31:12;96357.34;;;24.36;nan
23303;BME280;11820;48.738;9.092;2022-07-23T05:33:37;96372.84;;;24.19;nan
23303;BME280;11820;48.738;9.092;2022-07-23T05:36:03;96367.94;;;24.36;nan
23303;BME280;11820;48.738;9.092;2022-07-23T05:38:29;96373.78;;;24.33;nan
23303;BME280;11820;48.738;9.092;2022-07-23T05:40:54;96365.53;;;24.40;nan
23303;BME280;11820;48.738;9.092;2022-07-23T05:43:20;96369.72;;;24.46;nan
23303;BME280;11820;48.738;9.092;2022-07-23T05:45:45;96371.06;;;24.43;nan
23303;BME280;11820;48.738;9.092;2022-07-23T05:48:10;96372.09;;;24.47;nan
23303;BME280;11820;48.738;9.092;2022-07-23T05:50:36;96376.50;;;24.23;nan
23303;BME280;11820;48.738;9.092;2022-07-23T05:53:01;96388.22;;;24.46;nan
23303;BME280;11820;48.738;9.092;2022-07-23T05:55:27;96383.97;;;24.50;nan
23303;BME280;11820;48.738;9.092;2022-07-23T05:57:55;96387.50;;;24.35;nan
23303;BME280;11820;48.738;9.092;2022-07-23T06:00:20;96385.91;;;24.39;nan
23303;BME280;11820;48.738;9.092;2022-07-23T06:02:46;96387.00;;;24.38;nan
23303;BME280;11820;48.738;9.092;2022-07-23T06:05:11;96382.59;;;24.57;nan
23303;BME280;11820;48.738;9.092;2022-07-23T06:07:37;96378.75;;;24.73;nan
23303;BME280;11820;48.738;9.092;2022-07-23T06:10:03;96374.09;;;24.60;nan
23303;BME280;11820;48.738;9.092;2022-07-23T06:12:29;96372.47;;;24.69;nan
23303;BME280;11820;48.738;9.092;2022-07-23T06:14:54;96364.66;;;24.54;nan
23303;BME280;11820;48.738;9.092;2022-07-23T06:17:19;96350.44;;;24.74;nan
23303;BME280;11820;48.738;9.092;2022-07-23T06:19:45;96366.16;;;24.65;nan
23303;BME280;11820;48.738;9.092;2022-07-23T06:22:10;96358.06;;;24.80;nan
23303;BME280;11820;48.738;9.092;2022-07-23T06:24:36;96371.50;;;24.55;nan
23303;BME280;11820;48.738;9.092;2022-07-23T06:27:01;96381.41;;;24.73;nan
23303;BME280;11820;48.738;9.092;2022-07-23T06:29:26;96391.16;;;24.78;nan
23303;BME280;11820;48.738;9.092;2022-07-23T06:31:52;96395.19;;;24.70;nan
23303;BME280;11820;48.738;9.092;2022-07-23T06:34:17;96398.81;;;24.79;nan
23303;BME280;11820;48.738;9.092;2022-07-23T06:36:42;96399.25;;;24.86;nan
23303;BME280;11820;48.738;9.092;2022-07-23T06:39:08;96392.16;;;25.10;nan
23303;BME280;11820;48.738;9.092;2022-07-23T06:41:33;96394.84;;;25.33;nan
23303;BME280;11820;48.738;9.092;2022-07-23T06:43:59;96403.81;;;25.09;nan
23303;BME280;11820;48.738;9.092;2022-07-23T06:46:24;96403.69;;;25.24;nan
23303;BME280;11820;48.738;9.092;2022-07-23T06:48:50;96409.50;;;25.26;nan
23303;BME280;11820;48.738;9.092;2022-07-23T06:51:15;96418.69;;;25.05;nan
23303;BME280;11820;48.738;9.092;2022-07-23T06:53:41;96420.81;;;25.03;nan
23303;BME280;11820;48.738;9.092;2022-07-23T06:56:06;96418.47;;;25.01;nan
23303;BME280;11820;48.738;9.092;2022-07-23T06:58:32;96410.41;;;25.11;nan
23303;BME280;11820;48.738;9.092;2022-07-23T07:00:57;96421.22;;;25.20;nan
23303;BME280;11820;48.738;9.092;2022-07-23T07:03:22;96430.69;;;25.26;nan
23303;BME280;11820;48.738;9.092;2022-07-23T07:05:48;96439.69;;;25.25;nan
23303;BME280;11820;48.738;9.092;2022-07-23T07:08:15;96440.44;;;24.69;nan
23303;BME280;11820;48.738;9.092;2022-07-23T07:10:40;96446.19;;;24.76;nan
23303;BME280;11820;48.738;9.092;2022-07-23T07:13:06;96443.72;;;24.17;nan
23303;BME280;11820;48.738;9.092;2022-07-23T07:15:31;96426.28;;;24.50;nan
23303;BME280;11820;48.738;9.092;2022-07-23T07:17:56;96418.91;;;24.52;nan
23303;BME280;11820;48.738;9.092;2022-07-23T07:20:22;96416.25;;;24.47;nan
23303;BME280;11820;48.738;9.092;2022-07-23T07:22:48;96409.00;;;24.62;nan
23303;BME280;11820;48.738;9.092;2022-07-23T07:25:14;96425.56;;;24.78;nan
23303;BME280;11820;48.738;9.092;2022-07-23T07:27:39;96434.81;;;24.42;nan
23303;BME280;11820;48.738;9.092;2022-07-23T07:30:06;96425.31;;;24.74;nan
23303;BME280;11820;48.738;9.092;2022-07-23T07:32:32;96416.81;;;24.77;nan
23303;BME280;11820;48.738;9.092;2022-07-23T07:34:58;96422.03;;;24.87;nan
23303;BME280;11820;48.738;9.092;2022-07-23T07:37:23;96442.16;;;24.83;nan
23303;BME280;11820;48.738;9.092;2022-07-23T07:39:48;96451.56;;;24.99;nan
23303;BME280;11820;48.738;9.092;2022-07-23T07:42:14;96451.81;;;25.02;nan
23303;BME280;11820;48.738;9.092;2022-07-23T07:44:39;96448.41;;;24.97;nan
23303;BME280;11820;48.738;9.092;2022-07-23T07:47:04;96456.41;;;24.92;nan
23303;BME280;11820;48.738;9.092;2022-07-23T07:49:30;96469.06;;;24.95;nan
23303;BME280;11820;48.738;9.092;2022-07-23T07:51:55;96481.25;;;24.96;nan
23303;BME280;11820;48.738;9.092;2022-07-23T07:54:20;96479.22;;;24.83;nan
23303;BME280;11820;48.738;9.092;2022-07-23T07:56:46;96482.06;;;24.91;nan
23303;BME280;11820;48.738;9.092;2022-07-23T07:59:11;96485.81;;;24.52;nan
23303;BME280;11820;48.738;9.092;2022-07-23T08:01:37;96495.84;;;24.50;nan
23303;BME280;11820;48.738;9.092;2022-07-23T08:04:02;96506.50;;;24.40;nan
23303;BME280;11820;48.738;9.092;2022-07-23T08:06:27;96501.25;;;24.30;nan
23303;BME280;11820;48.738;9.092;2022-07-23T08:08:53;96501.34;;;24.64;nan
23303;BME280;11820;48.738;9.092;2022-07-23T08:11:18;96501.25;;;24.74;nan
23303;BME280;11820;48.738;9.092;2022-07-23T08:13:44;96501.56;;;24.72;nan
23303;BME280;11820;48.738;9.092;2022-07-23T08:16:10;96493.63;;;25.00;nan
23303;BME280;11820;48.738;9.092;2022-07-23T08:18:35;96490.03;;;24.53;nan
23303;BME280;11820;48.738;9.092;2022-07-23T08:21:01;96479.41;;;24.63;nan
23303;BME280;11820;48.738;9.092;2022-07-23T08:23:26;96472.78;;;24.61;nan
23303;BME280;11820;48.738;9.092;2022-07-23T08:25:52;96477.75;;;24.72;nan
23303;BME280;11820;48.738;9.092;2022-07-23T08:28:18;96478.25;;;24.74;nan
23303;BME280;11820;48.738;9.092;2022-07-23T08:30:44;96481.44;;;25.04;nan
23303;BME280;11820;48.738;9.092;2022-07-23T08:33:14;96486.09;;;25.17;nan
23303;BME280;11820;48.738;9.092;2022-07-23T08:35:42;96483.41;;;25.22;nan
23303;BME280;11820;48.738;9.092;2022-07-23T08:38:10;96490.63;;;25.40;nan
23303;BME280;11820;48.738;9.092;2022-07-23T08:40:42;96483.19;;;25.19;nan
23303;BME280;11820;48.738;9.092;2022-07-23T08:43:09;96478.59;;;25.53;nan
23303;BME280;11820;48.738;9.092;2022-07-23T08:45:40;96483.53;;;25.36;nan
23303;BME280;11820;48.738;9.092;2022-07-23T08:48:18;96476.22;;;25.75;nan
23303;BME280;11820;48.738;9.092;2022-07-23T08:50:48;96479.66;;;25.52;nan
23303;BME280;11820;48.738;9.092;2022-07-23T08:53:15;96479.06;;;25.83;nan
23303;BME280;11820;48.738;9.092;2022-07-23T08:55:43;96484.38;;;25.83;nan
23303;BME280;11820;48.738;9.092;2022-07-23T08:58:09;96480.31;;;25.91;nan
23303;BME280;11820;48.738;9.092;2022-07-23T09:00:34;96488.47;;;25.94;nan
23303;BME280;11820;48.738;9.092;2022-07-23T09:03:00;96483.47;;;25.93;nan
23303;BME280;11820;48.738;9.092;2022-07-23T09:05:25;96483.97;;;26.13;nan
23303;BME280;11820;48.738;9.092;2022-07-23T09:08:12;96479.91;;;26.21;nan
23303;BME280;11820;48.738;9.092;2022-07-23T09:10:59;96480.63;;;26.45;nan
23303;BME280;11820;48.738;9.092;2022-07-23T09:16:02;96493.59;;;26.09;nan
23303;BME280;11820;48.738;9.092;2022-07-23T09:23:37;96469.16;;;26.67;nan
23303;BME280;11820;48.738;9.092;2022-07-23T09:26:17;96463.84;;;26.99;nan
23303;BME280;11820;48.738;9.092;2022-07-23T09:29:16;96459.94;;;26.78;nan
23303;BME280;11820;48.738;9.092;2022-07-23T09:34:15;96467.22;;;26.55;nan
23303;BME280;11820;48.738;9.092;2022-07-23T09:36:41;96462.38;;;26.93;nan
23303;BME280;11820;48.738;9.092;2022-07-23T09:39:08;96456.06;;;27.03;nan
23303;BME280;11820;48.738;9.092;2022-07-23T09:41:45;96456.81;;;26.76;nan
23303;BME280;11820;48.738;9.092;2022-07-23T09:44:19;96448.97;;;26.85;nan
23303;BME280;11820;48.738;9.092;2022-07-23T09:46:46;96446.28;;;26.71;nan
23303;BME280;11820;48.738;9.092;2022-07-23T09:49:22;96454.19;;;26.90;nan
23303;BME280;11820;48.738;9.092;2022-07-23T09:51:49;96450.13;;;26.92;nan
23303;BME280;11820;48.738;9.092;2022-07-23T09:54:28;96454.00;;;27.00;nan
23303;BME280;11820;48.738;9.092;2022-07-23T09:56:57;96452.31;;;27.22;nan
23303;BME280;11820;48.738;9.092;2022-07-23T09:59:33;96448.28;;;27.38;nan
23303;BME280;11820;48.738;9.092;2022-07-23T10:02:00;96446.59;;;27.42;nan
23303;BME280;11820;48.738;9.092;2022-07-23T10:04:28;96449.56;;;27.68;nan
23303;BME280;11820;48.738;9.092;2022-07-23T10:06:56;96447.78;;;27.63;nan
23303;BME280;11820;48.738;9.092;2022-07-23T10:09:27;96448.69;;;27.45;nan
23303;BME280;11820;48.738;9.092;2022-07-23T10:11:55;96451.06;;;27.74;nan
23303;BME280;11820;48.738;9.092;2022-07-23T10:14:25;96445.56;;;27.97;nan
23303;BME280;11820;48.738;9.092;2022-07-23T10:16:52;96447.97;;;28.07;nan
23303;BME280;11820;48.738;9.092;2022-07-23T10:19:18;96456.19;;;27.97;nan
23303;BME280;11820;48.738;9.092;2022-07-23T10:21:58;96450.59;;;28.21;nan
23303;BME280;11820;48.738;9.092;2022-07-23T10:24:28;96458.41;;;28.52;nan
23303;BME280;11820;48.738;9.092;2022-07-23T10:27:02;96462.09;;;28.43;nan
23303;BME280;11820;48.738;9.092;2022-07-23T10:35:07;96458.75;;;28.51;nan
23303;BME280;11820;48.738;9.092;2022-07-23T10:37:39;96458.00;;;28.24;nan
23303;BME280;11820;48.738;9.092;2022-07-23T10:40:15;96455.34;;;28.24;nan
23303;BME280;11820;48.738;9.092;2022-07-23T10:42:43;96462.09;;;27.81;nan
23303;BME280;11820;48.738;9.092;2022-07-23T10:45:36;96461.28;;;28.07;nan
23303;BME280;11820;48.738;9.092;2022-07-23T10:48:23;96457.22;;;28.58;nan
23303;BME280;11820;48.738;9.092;2022-07-23T10:51:11;96455.00;;;28.74;nan
23303;BME280;11820;48.738;9.092;2022-07-23T10:53:57;96452.19;;;28.57;nan
23303;BME280;11820;48.738;9.092;2022-07-23T10:59:19;96448.84;;;28.16;nan
23303;BME280;11820;48.738;9.092;2022-07-23T11:01:45;96443.78;;;28.42;nan
23303;BME280;11820;48.738;9.092;2022-07-23T11:04:11;96451.34;;;28.70;nan
23303;BME280;11820;48.738;9.092;2022-07-23T11:09:38;96447.38;;;29.03;nan
23303;BME280;11820;48.738;9.092;2022-07-23T11:17:22;96449.38;;;28.97;nan
23303;BME280;11820;48.738;9.092;2022-07-23T11:22:47;96451.75;;;28.99;nan
23303;BME280;11820;48.738;9.092;2022-07-23T11:25:28;96447.25;;;29.08;nan
23303;BME280;11820;48.738;9.092;2022-07-23T11:27:55;96446.25;;;29.26;nan
23303;BME280;11820;48.738;9.092;2022-07-23T11:35:33;96448.25;;;29.20;nan
23303;BME280;11820;48.738;9.092;2022-07-23T11:38:13;96447.75;;;28.88;nan
23303;BME280;11820;48.738;9.092;2022-07-23T11:40:39;96443.75;;;28.77;nan
23303;BME280;11820;48.738;9.092;2022-07-23T11:43:09;96447.22;;;28.86;nan
23303;BME280;11820;48.738;9.092;2022-07-23T11:45:41;96447.09;;;28.69;nan
23303;BME280;11820;48.738;9.092;2022-07-23T11:48:09;96446.19;;;28.51;nan
23303;BME280;11820;48.738;9.092;2022-07-23T11:50:35;96443.50;;;28.30;nan
23303;BME280;11820;48.738;9.092;2022-07-23T11:53:01;96444.69;;;28.37;nan
23303;BME280;11820;48.738;9.092;2022-07-23T11:55:26;96441.69;;;28.52;nan
23303;BME280;11820;48.738;9.092;2022-07-23T11:57:54;96442.91;;;28.19;nan
23303;BME280;11820;48.738;9.092;2022-07-23T12:00:22;96433.75;;;28.60;nan
23303;BME280;11820;48.738;9.092;2022-07-23T12:02:50;96440.09;;;28.51;nan
23303;BME280;11820;48.738;9.092;2022-07-23T12:05:21;96442.34;;;28.22;nan
23303;BME280;11820;48.738;9.092;2022-07-23T12:07:48;96431.00;;;28.30;nan
23303;BME280;11820;48.738;9.092;2022-07-23T12:12:49;96435.59;;;27.89;nan
23303;BME280;11820;48.738;9.092;2022-07-23T12:15:17;96441.59;;;27.68;nan
23303;BME280;11820;48.738;9.092;2022-07-23T12:17:45;96435.28;;;28.04;nan
23303;BME280;11820;48.738;9.092;2022-07-23T12:20:21;96434.97;;;28.06;nan
23303;BME280;11820;48.738;9.092;2022-07-23T12:22:49;96423.38;;;28.37;nan
23303;BME280;11820;48.738;9.092;2022-07-23T12:25:18;96424.78;;;28.35;nan
23303;BME280;11820;48.738;9.092;2022-07-23T12:27:45;96433.91;;;27.93;nan
23303;BME280;11820;48.738;9.092;2022-07-23T12:30:26;96434.44;;;28.17;nan
23303;BME280;11820;48.738;9.092;2022-07-23T12:32:54;96425.78;;;28.25;nan
23303;BME280;11820;48.738;9.092;2022-07-23T12:35:20;96426.81;;;28.02;nan
23303;BME280;11820;48.738;9.092;2022-07-23T12:37:48;96423.94;;;28.47;nan
23303;BME280;11820;48.738;9.092;2022-07-23T12:40:26;96431.34;;;27.88;nan
23303;BME280;11820;48.738;9.092;2022-07-23T12:46:13;96428.09;;;28.40;nan
23303;BME280;11820;48.738;9.092;2022-07-23T12:53:50;96432.13;;;28.51;nan
23303;BME280;11820;48.738;9.092;2022-07-23T12:56:36;96433.69;;;28.74;nan
23303;BME280;11820;48.738;9.092;2022-07-23T12:59:07;96433.41;;;28.40;nan
23303;BME280;11820;48.738;9.092;2022-07-23T13:01:39;96435.75;;;28.77;nan
23303;BME280;11820;48.738;9.092;2022-07-23T13:06:33;96439.13;;;28.91;nan
23303;BME280;11820;48.738;9.092;2022-07-23T13:08:59;96440.00;;;29.00;nan
23303;BME280;11820;48.738;9.092;2022-07-23T13:11:25;96441.78;;;29.13;nan
23303;BME280;11820;48.738;9.092;2022-07-23T13:13:51;96432.13;;;29.25;nan
23303;BME280;11820;48.738;9.092;2022-07-23T13:16:16;96433.91;;;29.08;nan
23303;BME280;11820;48.738;9.092;2022-07-23T13:18:42;96440.59;;;29.58;nan
23303;BME280;11820;48.738;9.092;2022-07-23T13:21:08;96444.72;;;29.72;nan
23303;BME280;11820;48.738;9.092;2022-07-23T13:23:34;96438.88;;;29.62;nan
23303;BME280;11820;48.738;9.092;2022-07-23T13:25:59;96439.94;;;30.00;nan
23303;BME280;11820;48.738;9.092;2022-07-23T13:28:24;96440.16;;;30.62;nan
23303;BME280;11820;48.738;9.092;2022-07-23T13:30:51;96444.38;;;30.13;nan
23303;BME280;11820;48.738;9.092;2022-07-23T13:33:18;96447.34;;;30.03;nan
23303;BME280;11820;48.738;9.092;2022-07-23T13:35:44;96439.19;;;30.16;nan
23303;BME280;11820;48.738;9.092;2022-07-23T13:38:10;96438.81;;;29.92;nan
23303;BME280;11820;48.738;9.092;2022-07-23T13:40:38;96439.00;;;29.48;nan
23303;BME280;11820;48.738;9.092;2022-07-23T13:43:05;96445.06;;;29.10;nan
23303;BME280;11820;48.738;9.092;2022-07-23T13:45:31;96439.53;;;29.06;nan
23303;BME280;11820;48.738;9.092;2022-07-23T13:47:57;96440.97;;;29.43;nan
23303;BME280;11820;48.738;9.092;2022-07-23T13:50:22;96430.44;;;29.68;nan
23303;BME280;11820;48.738;9.092;2022-07-23T13:52:49;96433.03;;;28.90;nan
23303;BME280;11820;48.738;9.092;2022-07-23T13:55:14;96437.31;;;28.56;nan
23303;BME280;11820;48.738;9.092;2022-07-23T13:57:39;96427.88;;;28.94;nan
23303;BME280;11820;48.738;9.092;2022-07-23T14:00:06;96428.84;;;28.98;nan
23303;BME280;11820;48.738;9.092;2022-07-23T14:02:33;96426.53;;;29.05;nan
23303;BME280;11820;48.738;9.092;2022-07-23T14:04:58;96432.66;;;28.26;nan
23303;BME280;11820;48.738;9.092;2022-07-23T14:07:23;96431.84;;;28.83;nan
23303;BME280;11820;48.738;9.092;2022-07-23T14:09:49;96428.47;;;28.91;nan